createdAt,value
2019-05-16T00:01:01.147Z,22.40
2019-05-16T00:03:38.529Z,16.77
2019-05-16T00:06:08.616Z,16.10
2019-05-16T00:08:38.843Z,18.55
2019-05-16T00:11:08.745Z,16.82
2019-05-16T00:13:38.754Z,17.62
2019-05-16T00:16:08.491Z,15.58
2019-05-16T00:18:38.800Z,15.43
2019-05-16T00:21:08.897Z,17.30
2019-05-16T00:23:38.631Z,17.15
2019-05-16T00:26:08.316Z,16.15
2019-05-16T00:28:38.075Z,15.90
2019-05-16T00:31:08.652Z,16.15
2019-05-16T00:33:38.455Z,16.55
2019-05-16T00:36:09.157Z,17.32
2019-05-16T00:38:39.160Z,16.82
2019-05-16T00:41:08.945Z,17.82
2019-05-16T00:43:38.641Z,18.62
2019-05-16T00:46:08.380Z,20.72
2019-05-16T00:48:38.277Z,20.27
2019-05-16T00:51:08.345Z,21.35
2019-05-16T00:53:39.632Z,20.95
2019-05-16T00:56:09.440Z,21.65
2019-05-16T00:58:39.497Z,20.52
2019-05-16T01:01:09.261Z,20.35
2019-05-16T01:03:38.920Z,20.75
2019-05-16T01:06:16.688Z,20.82
2019-05-16T01:08:39.928Z,22.82
2019-05-16T01:11:09.750Z,24.82
2019-05-16T01:13:39.496Z,20.72
2019-05-16T01:16:09.238Z,21.87
2019-05-16T01:18:38.917Z,21.25
2019-05-16T01:21:08.559Z,19.52
2019-05-16T01:23:38.874Z,21.33
2019-05-16T01:26:08.724Z,19.65
2019-05-16T01:28:38.417Z,18.80
2019-05-16T01:31:08.596Z,20.88
2019-05-16T01:33:38.635Z,21.40
2019-05-16T01:36:09.178Z,19.45
2019-05-16T01:38:39.124Z,22.48
2019-05-16T01:41:08.950Z,21.90
2019-05-16T01:43:38.659Z,20.12
2019-05-16T01:46:08.515Z,23.60
2019-05-16T01:48:38.413Z,22.70
2019-05-16T01:51:08.051Z,24.77
2019-05-16T01:53:39.452Z,24.20
2019-05-16T01:56:09.016Z,24.98
2019-05-16T01:58:38.717Z,25.15
2019-05-16T02:01:13.387Z,22.98
2019-05-16T02:03:39.881Z,27.10
2019-05-16T02:06:09.489Z,27.82
2019-05-16T02:08:39.183Z,27.40
2019-05-16T02:11:28.546Z,25.92
2019-05-16T02:13:58.640Z,27.85
2019-05-16T02:16:28.454Z,26.77
2019-05-16T02:18:58.851Z,27.37
2019-05-16T02:21:28.799Z,27.48
2019-05-16T02:23:58.973Z,31.42
2019-05-16T02:26:29.760Z,28.87
2019-05-16T02:29:00.894Z,31.35
2019-05-16T02:31:31.460Z,30.27
2019-05-16T02:34:04.654Z,28.62
2019-05-16T02:36:32.726Z,29.92
2019-05-16T02:39:02.433Z,32.28
2019-05-16T02:41:32.212Z,32.67
2019-05-16T02:44:01.952Z,29.35
2019-05-16T02:46:31.608Z,30.37
2019-05-16T02:49:01.287Z,28.80
2019-05-16T02:51:31.511Z,28.45
2019-05-16T02:54:01.556Z,29.35
2019-05-16T02:56:31.842Z,33.18
2019-05-16T02:59:01.919Z,29.95
2019-05-16T03:01:31.843Z,29.80
2019-05-16T03:04:02.031Z,29.12
2019-05-16T03:06:32.715Z,29.02
2019-05-16T03:09:05.387Z,26.17
2019-05-16T03:11:36.369Z,27.25
2019-05-16T03:14:06.437Z,29.57
2019-05-16T03:16:41.883Z,25.00
2019-05-16T03:19:13.904Z,25.65
2019-05-16T03:21:45.143Z,31.52
2019-05-16T03:24:14.833Z,26.45
2019-05-16T03:26:44.462Z,27.82
2019-05-16T03:29:14.140Z,28.47
2019-05-16T03:31:45.339Z,33.02
2019-05-16T03:34:16.953Z,25.80
2019-05-16T03:36:46.565Z,32.85
2019-05-16T03:39:16.391Z,27.30
2019-05-16T03:41:50.567Z,27.10
2019-05-16T03:44:21.073Z,24.60
2019-05-16T03:47:11.293Z,26.80
2019-05-16T03:49:42.240Z,26.17
2019-05-16T03:52:12.106Z,27.93
2019-05-16T03:54:42.148Z,26.87
2019-05-16T03:57:11.853Z,25.43
2019-05-16T03:59:41.530Z,23.73
2019-05-16T04:02:11.144Z,23.55
2019-05-16T04:04:41.707Z,23.62
2019-05-16T04:07:11.594Z,26.20
2019-05-16T04:09:41.473Z,24.47
2019-05-16T04:12:11.283Z,22.60
2019-05-16T04:14:41.219Z,23.60
2019-05-16T04:17:11.099Z,23.83
2019-05-16T04:19:41.518Z,24.27
2019-05-16T04:22:15.899Z,25.27
2019-05-16T04:24:45.847Z,24.47
2019-05-16T04:27:15.505Z,24.72
2019-05-16T04:29:46.452Z,23.45
2019-05-16T04:32:16.107Z,29.20
2019-05-16T04:34:45.842Z,26.68
2019-05-16T04:37:15.543Z,20.70
2019-05-16T04:39:45.248Z,21.02
2019-05-16T04:42:14.903Z,20.32
2019-05-16T04:44:47.074Z,17.75
2019-05-16T04:47:16.751Z,19.30
2019-05-16T04:49:46.458Z,17.45
2019-05-16T04:52:16.152Z,17.05
2019-05-16T04:54:45.865Z,14.95
2019-05-16T04:57:15.486Z,18.20
2019-05-16T04:59:45.519Z,15.78
2019-05-16T05:02:15.178Z,19.52
2019-05-16T05:04:44.840Z,16.07
2019-05-16T05:07:14.513Z,16.20
2019-05-16T05:09:44.245Z,17.50
2019-05-16T05:12:13.862Z,17.57
2019-05-16T05:14:43.659Z,20.60
2019-05-16T05:17:13.312Z,22.70
2019-05-16T05:19:43.057Z,19.77
2019-05-16T05:22:12.724Z,19.40
2019-05-16T05:24:42.427Z,20.80
2019-05-16T05:27:12.071Z,20.92
2019-05-16T05:29:41.782Z,20.05
2019-05-16T05:32:14.482Z,23.55
2019-05-16T05:34:43.863Z,26.48
2019-05-16T05:37:16.602Z,23.57
2019-05-16T05:39:46.206Z,21.25
2019-05-16T05:42:15.933Z,21.25
2019-05-16T05:44:45.682Z,23.18
2019-05-16T05:47:15.361Z,21.40
2019-05-16T05:49:45.026Z,18.75
2019-05-16T05:52:14.734Z,18.50
2019-05-16T05:54:44.395Z,22.55
2019-05-16T05:57:15.039Z,20.23
2019-05-16T05:59:49.821Z,17.35
2019-05-16T06:02:20.131Z,17.70
2019-05-16T06:04:50.282Z,17.95
2019-05-16T06:07:20.555Z,21.60
2019-05-16T06:09:55.582Z,17.40
2019-05-16T06:12:24.202Z,18.05
2019-05-16T06:14:53.793Z,14.60
2019-05-16T06:17:23.410Z,16.30
2019-05-16T06:19:53.057Z,21.37
2019-05-16T06:22:22.729Z,17.20
2019-05-16T06:24:52.417Z,16.75
2019-05-16T06:27:22.059Z,13.30
2019-05-16T06:29:52.696Z,15.90
2019-05-16T06:32:22.446Z,15.60
2019-05-16T06:34:52.164Z,14.38
2019-05-16T06:37:21.836Z,16.93
2019-05-16T06:39:51.647Z,15.65
2019-05-16T06:42:21.391Z,17.35
2019-05-16T06:44:51.205Z,14.03
2019-05-16T06:47:23.105Z,19.42
2019-05-16T06:49:55.247Z,17.45
2019-05-16T06:52:25.960Z,15.98
2019-05-16T06:54:55.608Z,15.38
2019-05-16T06:57:25.310Z,17.20
2019-05-16T06:59:55.013Z,18.15
2019-05-16T07:02:30.277Z,20.62
2019-05-16T07:04:56.043Z,15.95
2019-05-16T07:07:25.700Z,14.93
2019-05-16T07:10:00.775Z,14.13
2019-05-16T07:12:26.594Z,13.53
2019-05-16T07:14:56.258Z,13.78
2019-05-16T07:17:25.924Z,13.75
2019-05-16T07:19:55.567Z,14.50
2019-05-16T07:22:31.036Z,14.18
2019-05-16T07:24:59.897Z,15.00
2019-05-16T07:27:30.927Z,11.30
2019-05-16T07:30:07.474Z,13.13
2019-05-16T07:32:37.168Z,11.00
2019-05-16T07:35:09.622Z,9.88
2019-05-16T07:37:40.033Z,10.28
2019-05-16T07:40:19.245Z,8.90
2019-05-16T07:42:41.974Z,10.50
2019-05-16T07:45:11.874Z,11.45
2019-05-16T07:47:41.540Z,10.93
2019-05-16T07:50:11.421Z,13.72
2019-05-16T07:52:41.081Z,15.15
2019-05-16T07:55:11.259Z,12.07
2019-05-16T07:57:40.894Z,12.55
2019-05-16T08:00:11.715Z,10.38
2019-05-16T08:02:41.377Z,12.03
2019-05-16T08:05:11.144Z,11.28
2019-05-16T08:07:41.007Z,9.90
2019-05-16T08:10:11.099Z,8.38
2019-05-16T08:12:40.981Z,7.72
2019-05-16T08:15:11.556Z,8.20
2019-05-16T08:17:44.525Z,8.13
2019-05-16T08:20:12.790Z,8.85
2019-05-16T08:22:42.500Z,9.00
2019-05-16T08:25:12.460Z,6.62
2019-05-16T08:27:42.157Z,4.58
2019-05-16T08:30:11.961Z,5.50
2019-05-16T08:32:42.409Z,8.25
2019-05-16T08:35:13.062Z,5.00
2019-05-16T08:37:46.904Z,5.90
2019-05-16T08:40:15.875Z,5.78
2019-05-16T08:42:51.575Z,5.20
2019-05-16T08:45:21.193Z,3.50
2019-05-16T08:47:53.658Z,4.92
2019-05-16T08:50:23.326Z,5.60
2019-05-16T08:52:53.410Z,6.12
2019-05-16T08:55:23.144Z,8.15
2019-05-16T09:00:24.749Z,4.35
2019-05-16T09:02:54.407Z,6.50
2019-05-16T09:05:24.007Z,5.33
2019-05-16T09:08:00.611Z,9.00
2019-05-16T09:10:30.768Z,5.30
2019-05-16T09:12:57.331Z,4.10
2019-05-16T09:15:27.394Z,5.80
2019-05-16T09:18:03.420Z,5.33
2019-05-16T09:20:37.375Z,8.23
2019-05-16T09:23:07.376Z,10.80
2019-05-16T09:25:37.034Z,4.58
2019-05-16T09:28:07.576Z,6.08
2019-05-16T09:30:37.237Z,6.03
2019-05-16T09:33:26.973Z,5.30
2019-05-16T09:35:57.544Z,3.92
2019-05-16T09:38:28.662Z,5.15
2019-05-16T09:41:00.260Z,3.30
2019-05-16T09:43:30.374Z,2.90
2019-05-16T09:46:03.912Z,3.10
2019-05-16T09:48:31.401Z,3.25
2019-05-16T09:51:06.498Z,4.70
2019-05-16T09:53:36.662Z,4.60
2019-05-16T09:56:07.050Z,5.85
2019-05-16T09:58:37.469Z,4.60
2019-05-16T10:01:07.473Z,4.30
2019-05-16T10:03:37.431Z,5.42
2019-05-16T10:06:08.020Z,4.05
2019-05-16T10:08:38.133Z,5.03
2019-05-16T10:11:07.896Z,4.80
2019-05-16T10:13:37.839Z,3.27
2019-05-16T10:16:08.952Z,3.08
2019-05-16T10:18:38.789Z,4.40
2019-05-16T10:21:08.457Z,5.67
2019-05-16T10:23:38.130Z,3.52
2019-05-16T10:26:07.746Z,3.25
2019-05-16T10:28:38.472Z,3.15
2019-05-16T10:31:08.312Z,4.97
2019-05-16T10:33:39.098Z,2.92
2019-05-16T10:36:08.950Z,2.92
2019-05-16T10:38:38.783Z,4.10
2019-05-16T10:41:12.828Z,2.98
2019-05-16T10:43:40.258Z,3.90
2019-05-16T10:46:10.153Z,5.42
2019-05-16T10:48:39.747Z,4.08
2019-05-16T10:51:09.455Z,3.85
2019-05-16T10:54:02.408Z,3.50
2019-05-16T10:56:12.040Z,4.17
2019-05-16T10:58:59.605Z,4.90
2019-05-16T11:01:24.222Z,3.50
2019-05-16T11:03:44.218Z,7.00
2019-05-16T11:06:25.362Z,5.62
2019-05-16T11:08:46.623Z,4.85
2019-05-16T11:11:19.658Z,4.03
2019-05-16T11:13:50.941Z,3.25
2019-05-16T11:16:19.261Z,3.47
2019-05-16T11:18:48.846Z,4.03
2019-05-16T11:21:19.356Z,3.40
2019-05-16T11:23:49.287Z,5.53
2019-05-16T11:26:18.940Z,5.37
2019-05-16T11:28:49.230Z,3.55
2019-05-16T11:31:19.130Z,3.05
2019-05-16T11:33:48.835Z,3.35
2019-05-16T11:36:18.544Z,2.95
2019-05-16T11:38:49.222Z,3.83
2019-05-16T11:41:18.887Z,3.55
2019-05-16T11:43:48.530Z,2.70
2019-05-16T11:46:18.217Z,2.52
2019-05-16T11:48:49.003Z,4.25
2019-05-16T11:51:19.214Z,3.45
2019-05-16T11:53:49.287Z,4.90
2019-05-16T11:56:18.985Z,4.33
2019-05-16T11:58:48.620Z,3.83
2019-05-16T12:01:18.242Z,3.15
2019-05-16T12:03:47.877Z,3.05
2019-05-16T12:06:17.550Z,2.30
2019-05-16T12:08:47.152Z,4.35
2019-05-16T12:11:17.944Z,2.95
2019-05-16T12:13:47.875Z,2.87
2019-05-16T12:16:18.864Z,2.95
2019-05-16T12:18:48.787Z,4.35
2019-05-16T12:21:19.791Z,3.08
2019-05-16T12:23:49.382Z,4.53
2019-05-16T12:26:19.231Z,2.90
2019-05-16T12:28:48.924Z,2.60
2019-05-16T12:31:18.558Z,2.60
2019-05-16T12:33:48.208Z,3.52
2019-05-16T12:36:18.227Z,3.42
2019-05-16T12:38:47.871Z,2.72
2019-05-16T12:41:17.568Z,3.35
2019-05-16T12:43:52.602Z,2.80
2019-05-16T12:46:18.600Z,2.77
2019-05-16T12:48:48.194Z,2.70
2019-05-16T12:51:19.017Z,3.25
2019-05-16T12:53:48.599Z,3.47
2019-05-16T12:56:18.257Z,7.58
2019-05-16T12:58:50.744Z,3.05
2019-05-16T13:01:20.789Z,3.27
2019-05-16T13:03:50.492Z,3.30
2019-05-16T13:06:23.149Z,3.27
2019-05-16T13:08:53.608Z,4.65
2019-05-16T13:11:23.394Z,3.87
2019-05-16T13:14:03.477Z,4.33
2019-05-16T13:16:28.190Z,3.98
2019-05-16T13:18:58.153Z,4.65
2019-05-16T13:21:28.942Z,3.90
2019-05-16T13:23:58.560Z,3.42
2019-05-16T13:26:28.208Z,4.00
2019-05-16T13:28:58.731Z,4.35
2019-05-16T13:31:31.106Z,6.12
2019-05-16T13:34:00.816Z,5.05
2019-05-16T13:36:30.485Z,4.65
2019-05-16T13:39:00.134Z,6.45
2019-05-16T13:41:29.815Z,4.75
2019-05-16T13:44:12.913Z,5.42
2019-05-16T13:46:30.919Z,4.80
2019-05-16T13:49:00.738Z,4.47
2019-05-16T13:51:30.540Z,5.85
2019-05-16T13:54:00.229Z,4.58
2019-05-16T13:56:30.006Z,5.45
2019-05-16T13:58:59.713Z,5.10
2019-05-16T14:01:29.382Z,4.85
2019-05-16T14:03:58.996Z,12.13
2019-05-16T14:06:28.719Z,6.37
2019-05-16T14:08:58.356Z,4.03
2019-05-16T14:11:28.026Z,4.42
2019-05-16T14:13:57.713Z,4.97
2019-05-16T14:16:29.091Z,4.40
2019-05-16T14:18:58.714Z,6.22
2019-05-16T14:21:28.418Z,6.90
2019-05-16T14:23:58.154Z,5.15
2019-05-16T14:26:27.805Z,4.90
2019-05-16T14:28:57.939Z,4.40
2019-05-16T14:31:27.735Z,5.70
2019-05-16T14:33:57.378Z,4.80
2019-05-16T14:36:28.118Z,5.67
2019-05-16T14:38:57.896Z,5.30
2019-05-16T14:41:28.195Z,3.50
2019-05-16T14:43:57.917Z,8.88
2019-05-16T14:46:27.622Z,3.90
2019-05-16T14:48:57.305Z,5.95
2019-05-16T14:51:31.043Z,5.75
2019-05-16T14:53:58.232Z,5.60
2019-05-16T14:56:27.985Z,4.92
2019-05-16T14:58:57.819Z,5.95
2019-05-16T15:01:27.613Z,4.78
2019-05-16T15:03:57.258Z,5.20
2019-05-16T15:06:27.521Z,4.95
2019-05-16T15:08:57.361Z,5.60
2019-05-16T15:11:28.213Z,5.60
2019-05-16T15:13:58.071Z,5.28
2019-05-16T15:16:27.875Z,4.80
2019-05-16T15:18:57.663Z,6.40
2019-05-16T15:21:27.296Z,5.25
2019-05-16T15:23:59.403Z,6.97
2019-05-16T15:26:28.710Z,5.60
2019-05-16T15:29:01.512Z,6.67
2019-05-16T15:31:31.254Z,6.78
2019-05-16T15:34:01.257Z,5.87
2019-05-16T15:36:31.497Z,6.65
2019-05-16T15:39:01.366Z,7.05
2019-05-16T15:41:30.958Z,6.55
2019-05-16T15:44:00.662Z,6.47
2019-05-16T15:46:30.347Z,7.40
2019-05-16T15:49:00.398Z,7.87
2019-05-16T15:51:31.000Z,6.95
2019-05-16T15:54:01.775Z,6.60
2019-05-16T15:56:32.237Z,6.78
2019-05-16T15:59:01.904Z,8.90
2019-05-16T16:01:31.554Z,7.40
2019-05-16T16:04:01.617Z,6.58
2019-05-16T16:06:31.183Z,7.37
2019-05-16T16:09:03.599Z,9.30
2019-05-16T16:11:37.962Z,6.75
2019-05-16T16:14:07.957Z,6.47
2019-05-16T16:16:37.706Z,6.58
2019-05-16T16:19:07.423Z,7.12
2019-05-16T16:21:38.079Z,6.65
2019-05-16T16:24:09.158Z,6.95
2019-05-16T16:26:39.144Z,6.85
2019-05-16T16:29:11.843Z,7.80
2019-05-16T16:31:41.445Z,7.33
2019-05-16T16:34:11.109Z,7.90
2019-05-16T16:36:40.683Z,7.40
2019-05-16T16:39:10.546Z,7.92
2019-05-16T16:41:40.143Z,9.10
2019-05-16T16:44:11.424Z,7.45
2019-05-16T16:46:41.032Z,9.23
2019-05-16T16:49:11.116Z,8.93
2019-05-16T16:51:40.723Z,9.15
2019-05-16T16:54:10.397Z,8.93
2019-05-16T16:56:40.003Z,9.68
2019-05-16T16:59:09.638Z,10.30
2019-05-16T17:01:39.271Z,10.23
2019-05-16T17:04:08.951Z,9.60
2019-05-16T17:06:38.536Z,10.15
2019-05-16T17:09:08.785Z,9.45
2019-05-16T17:11:38.377Z,10.08
2019-05-16T17:14:08.039Z,10.72
2019-05-16T17:16:37.917Z,9.50
2019-05-16T17:19:07.847Z,9.63
2019-05-16T17:21:37.539Z,9.63
2019-05-16T17:24:07.821Z,9.60
2019-05-16T17:26:42.000Z,10.25
2019-05-16T17:29:14.059Z,10.55
2019-05-16T17:31:54.055Z,10.53
2019-05-16T17:34:26.731Z,10.32
2019-05-16T17:36:58.623Z,10.90
2019-05-16T17:39:31.798Z,10.75
2019-05-16T17:42:10.424Z,10.10
2019-05-16T17:44:48.018Z,10.10
2019-05-16T17:47:23.106Z,10.30
2019-05-16T17:50:01.308Z,9.65
2019-05-16T17:52:36.964Z,10.63
2019-05-16T17:55:10.740Z,10.23
2019-05-16T17:57:40.459Z,10.03
2019-05-16T18:00:22.193Z,9.70
2019-05-16T18:02:46.644Z,9.90
2019-05-16T18:05:17.212Z,10.75
2019-05-16T18:07:47.635Z,10.65
2019-05-16T18:10:17.967Z,10.30
2019-05-16T18:12:48.172Z,9.90
2019-05-16T18:15:21.986Z,10.63
2019-05-16T18:17:51.663Z,11.55
2019-05-16T18:20:22.936Z,10.25
2019-05-16T18:22:52.902Z,10.70
2019-05-16T18:25:22.954Z,11.45
2019-05-16T18:27:52.686Z,11.78
2019-05-16T18:30:28.167Z,11.18
2019-05-16T18:32:57.917Z,11.20
2019-05-16T18:35:27.623Z,11.05
2019-05-16T18:38:00.309Z,12.25
2019-05-16T18:40:31.511Z,10.98
2019-05-16T18:43:01.158Z,12.35
2019-05-16T18:45:30.987Z,12.65
2019-05-16T18:48:00.583Z,12.15
2019-05-16T18:50:30.321Z,15.50
2019-05-16T18:53:00.018Z,12.58
2019-05-16T18:55:29.659Z,13.65
2019-05-16T18:58:00.611Z,14.30
2019-05-16T19:00:30.272Z,13.95
2019-05-16T19:02:59.876Z,13.88
2019-05-16T19:05:29.590Z,15.25
2019-05-16T19:07:59.244Z,16.30
2019-05-16T19:10:28.934Z,15.80
2019-05-16T19:12:59.757Z,15.98
2019-05-16T19:15:31.121Z,16.00
2019-05-16T19:18:06.544Z,15.72
2019-05-16T19:20:37.433Z,16.23
2019-05-16T19:23:07.932Z,14.90
2019-05-16T19:25:38.304Z,16.35
2019-05-16T19:28:07.903Z,16.48
2019-05-16T19:30:38.646Z,17.17
2019-05-16T19:33:08.313Z,17.40
2019-05-16T19:35:38.155Z,17.25
2019-05-16T19:38:07.860Z,18.35
2019-05-16T19:40:40.606Z,20.43
2019-05-16T19:43:09.023Z,19.95
2019-05-16T19:45:38.771Z,18.45
2019-05-16T19:48:11.329Z,19.12
2019-05-16T19:50:41.010Z,19.67
2019-05-16T19:53:10.632Z,20.68
2019-05-16T19:55:41.520Z,22.05
2019-05-16T19:58:11.380Z,19.48
2019-05-16T20:00:46.554Z,22.45
2019-05-16T20:03:16.767Z,22.25
2019-05-16T20:05:47.707Z,22.00
2019-05-16T20:08:17.604Z,22.10
2019-05-16T20:10:47.789Z,21.93
2019-05-16T20:13:17.852Z,23.45
2019-05-16T20:15:49.071Z,24.60
2019-05-16T20:18:21.798Z,23.40
2019-05-16T20:20:51.507Z,22.60
2019-05-16T20:23:21.261Z,24.07
2019-05-16T20:25:50.936Z,24.57
2019-05-16T20:28:20.593Z,23.65
2019-05-16T20:30:50.560Z,26.00
2019-05-16T20:33:20.215Z,24.57
2019-05-16T20:35:49.880Z,24.98
2019-05-16T20:38:19.543Z,27.80
2019-05-16T20:40:59.422Z,24.60
2019-05-16T20:43:26.291Z,25.17
2019-05-16T20:45:56.854Z,25.10
2019-05-16T20:48:27.528Z,25.55
2019-05-16T20:50:57.134Z,26.30
2019-05-16T20:53:27.208Z,28.35
2019-05-16T20:55:57.429Z,30.75
2019-05-16T20:58:27.356Z,27.82
2019-05-16T21:01:01.353Z,26.90
2019-05-16T21:03:28.313Z,29.65
2019-05-16T21:05:58.404Z,30.45
2019-05-16T21:08:28.838Z,31.27
2019-05-16T21:10:58.430Z,31.85
2019-05-16T21:13:28.210Z,31.87
2019-05-16T21:15:57.846Z,31.95
2019-05-16T21:18:27.477Z,29.92
2019-05-16T21:20:57.456Z,31.23
2019-05-16T21:23:27.587Z,29.45
2019-05-16T21:25:57.340Z,29.90
2019-05-16T21:28:27.006Z,29.77
2019-05-16T21:30:56.935Z,31.75
2019-05-16T21:33:27.326Z,29.48
2019-05-16T21:35:57.215Z,33.13
2019-05-16T21:38:27.277Z,30.25
2019-05-16T21:40:58.395Z,35.05
2019-05-16T21:43:28.291Z,33.60
2019-05-16T21:45:57.931Z,31.82
2019-05-16T21:48:27.875Z,33.33
2019-05-16T21:50:57.592Z,32.53
2019-05-16T21:53:29.940Z,31.17
2019-05-16T21:55:58.482Z,34.75
2019-05-16T21:58:29.484Z,34.10
2019-05-16T22:01:00.221Z,32.60
2019-05-16T22:03:29.947Z,32.93
2019-05-16T22:05:59.676Z,37.23
2019-05-16T22:08:29.345Z,37.65
2019-05-16T22:10:58.951Z,37.88
2019-05-16T22:13:28.691Z,37.23
2019-05-16T22:15:58.289Z,36.80
2019-05-16T22:18:27.921Z,36.58
2019-05-16T22:20:57.749Z,37.23
2019-05-16T22:23:27.406Z,38.58
2019-05-16T22:25:57.107Z,36.73
2019-05-16T22:28:29.962Z,39.65
2019-05-16T22:30:58.509Z,37.25
2019-05-16T22:33:28.331Z,36.23
2019-05-16T22:35:57.924Z,39.83
2019-05-16T22:38:27.573Z,40.25
2019-05-16T22:40:57.216Z,46.55
2019-05-16T22:43:26.924Z,33.25
2019-05-16T22:45:57.391Z,51.35
2019-05-16T22:48:27.292Z,46.45
2019-05-16T22:50:56.887Z,46.92
2019-05-16T22:53:27.220Z,49.55
2019-05-16T22:55:57.008Z,47.15
2019-05-16T22:58:27.024Z,51.00
2019-05-16T23:00:57.266Z,53.80
2019-05-16T23:03:27.141Z,52.60
2019-05-16T23:05:56.727Z,59.90
2019-05-16T23:08:27.182Z,54.00
2019-05-16T23:10:57.017Z,59.42
2019-05-16T23:13:26.804Z,58.13
2019-05-16T23:15:57.147Z,57.53
2019-05-16T23:18:27.246Z,67.03
2019-05-16T23:20:57.063Z,68.00
2019-05-16T23:23:26.775Z,64.37
2019-05-16T23:25:56.917Z,68.05
2019-05-16T23:28:27.353Z,69.03
2019-05-16T23:30:57.778Z,65.83
2019-05-16T23:33:27.712Z,75.10
2019-05-16T23:35:57.629Z,64.97
2019-05-16T23:38:27.723Z,74.90
2019-05-16T23:40:57.619Z,74.85
2019-05-16T23:43:27.368Z,79.05
2019-05-16T23:45:57.004Z,70.12
2019-05-16T23:48:26.707Z,78.42
2019-05-16T23:50:56.952Z,75.92
2019-05-16T23:53:26.839Z,78.80
2019-05-16T23:55:56.840Z,78.83
2019-05-16T23:58:26.627Z,75.30
